首页
METAR-TAF:

METAR-TAF

机场 :

斯塔克維爾, 密西西比州, 美国

纬度: 33-25-59N, 经度: 088-50-55W, 海拔: 101米

当前天气观测

该预报发布于19分钟前的16:55 UTC
风速6节,风向南转西南
温度 9°C
湿度 53%
气压 1024 hPa
能見度: 16.1公里
天空无云

METAR: KSTF 121655Z AUTO 20006KT 10SM CLR 09/00 A3023 RMK AO2 PWINO

时间: 11:14 (17:14 UTC)


TAF: 丢失

超过4000个机场的气象观测和天气预报(METAR&TAF报告)。

可查询的气象台以黄色和红色小点在地图上表示。

将鼠标移到小点上方,可查看气象台名称。

然后点击查看天气观测和预报。

如需切换地图:点击带黑十字的绿色按钮放大地图;点击带横线的绿色按钮缩小地图;或者点击绿色箭头查看邻近地区的地图。


METAR-TAF: